createdAt,value
2018-05-06T00:00:48.354Z,0
2018-05-06T00:01:49.716Z,0
2018-05-06T00:02:51.065Z,0
2018-05-06T00:03:52.434Z,0
2018-05-06T00:04:53.804Z,0
2018-05-06T00:05:55.163Z,0
2018-05-06T00:06:56.512Z,0
2018-05-06T00:07:57.864Z,0
2018-05-06T00:08:59.243Z,0
2018-05-06T00:10:00.600Z,0
2018-05-06T00:11:01.980Z,0
2018-05-06T00:12:03.332Z,0
2018-05-06T00:13:04.692Z,0
2018-05-06T00:14:06.054Z,0
2018-05-06T00:15:07.409Z,0
2018-05-06T00:16:08.771Z,0
2018-05-06T00:17:10.128Z,0
2018-05-06T00:18:11.489Z,0
2018-05-06T00:19:12.854Z,0
2018-05-06T00:20:14.212Z,0
2018-05-06T00:21:15.572Z,0
2018-05-06T00:22:16.932Z,0
2018-05-06T00:23:18.284Z,0
2018-05-06T00:24:19.658Z,0
2018-05-06T00:25:21.020Z,0
2018-05-06T00:26:22.387Z,0
2018-05-06T00:27:23.740Z,0
2018-05-06T00:28:25.097Z,0
2018-05-06T00:29:26.453Z,0
2018-05-06T00:30:27.859Z,0
2018-05-06T00:31:29.223Z,0
2018-05-06T00:32:30.577Z,0
2018-05-06T00:33:31.948Z,0
2018-05-06T00:34:33.293Z,0
2018-05-06T00:35:34.648Z,0
2018-05-06T00:36:36.007Z,0
2018-05-06T00:37:37.371Z,0
2018-05-06T00:38:38.726Z,0
2018-05-06T00:39:40.093Z,0
2018-05-06T00:40:41.452Z,0
2018-05-06T00:41:42.799Z,0
2018-05-06T00:42:44.168Z,0
2018-05-06T00:43:45.523Z,0
2018-05-06T00:44:46.880Z,0
2018-05-06T00:45:48.242Z,0
2018-05-06T00:46:49.600Z,0
2018-05-06T00:47:50.962Z,0
2018-05-06T00:48:52.320Z,0
2018-05-06T00:49:53.682Z,0
2018-05-06T00:50:55.040Z,0
2018-05-06T00:51:57.113Z,0
2018-05-06T00:52:58.472Z,0
2018-05-06T00:53:59.834Z,0
2018-05-06T00:55:01.195Z,0
2018-05-06T00:56:02.545Z,0
2018-05-06T00:57:03.930Z,0
2018-05-06T00:58:05.319Z,0
2018-05-06T00:59:06.653Z,0
2018-05-06T01:00:08.015Z,0
2018-05-06T01:01:09.374Z,0
2018-05-06T01:02:10.730Z,0
2018-05-06T01:03:12.088Z,0
2018-05-06T01:04:13.450Z,0
2018-05-06T01:05:14.808Z,0
2018-05-06T01:06:16.167Z,0
2018-05-06T01:07:17.517Z,0
2018-05-06T01:08:18.877Z,0
2018-05-06T01:09:20.243Z,0
2018-05-06T01:10:21.586Z,0
2018-05-06T01:11:22.940Z,0
2018-05-06T01:12:24.307Z,0
2018-05-06T01:13:25.667Z,0
2018-05-06T01:14:27.025Z,0
2018-05-06T01:15:28.393Z,0
2018-05-06T01:16:29.757Z,0
2018-05-06T01:17:31.105Z,0
2018-05-06T01:18:32.468Z,0
2018-05-06T01:19:33.824Z,0
2018-05-06T01:20:35.201Z,0
2018-05-06T01:21:36.642Z,0
2018-05-06T01:22:38.006Z,0
2018-05-06T01:23:39.357Z,0
2018-05-06T01:24:40.713Z,0
2018-05-06T01:25:42.075Z,0
2018-05-06T01:26:43.431Z,0
2018-05-06T01:27:44.791Z,0
2018-05-06T01:28:46.143Z,0
2018-05-06T01:29:47.497Z,0
2018-05-06T01:30:48.858Z,0
2018-05-06T01:31:50.215Z,0
2018-05-06T01:32:51.565Z,0
2018-05-06T01:33:52.918Z,0
2018-05-06T01:34:54.275Z,0
2018-05-06T01:35:55.644Z,0
2018-05-06T01:36:57.016Z,0
2018-05-06T01:37:58.376Z,0
2018-05-06T01:38:59.725Z,0
2018-05-06T01:40:01.083Z,0
2018-05-06T01:41:02.434Z,0
2018-05-06T01:42:03.795Z,0
2018-05-06T01:43:05.164Z,0
2018-05-06T01:44:06.545Z,0
2018-05-06T01:45:07.913Z,0
2018-05-06T01:46:09.270Z,0
2018-05-06T01:47:10.632Z,0
2018-05-06T01:48:12.006Z,0
2018-05-06T01:49:13.369Z,0
2018-05-06T01:50:14.711Z,0
2018-05-06T01:51:16.072Z,0
2018-05-06T01:52:17.422Z,0
2018-05-06T01:53:18.791Z,0
2018-05-06T01:54:20.142Z,0
2018-05-06T01:55:21.495Z,0
2018-05-06T01:56:22.850Z,0
2018-05-06T01:57:24.210Z,0
2018-05-06T01:58:25.572Z,0
2018-05-06T01:59:26.937Z,0
2018-05-06T02:00:28.341Z,0
2018-05-06T02:01:29.688Z,0
2018-05-06T02:02:41.471Z,0
2018-05-06T02:03:41.800Z,0
2018-05-06T02:04:43.167Z,0
2018-05-06T02:05:44.544Z,0
2018-05-06T02:06:46.616Z,0
2018-05-06T02:07:47.981Z,0
2018-05-06T02:08:49.337Z,0
2018-05-06T02:09:50.695Z,0
2018-05-06T02:10:52.062Z,0
2018-05-06T02:11:53.422Z,0
2018-05-06T02:12:54.782Z,0
2018-05-06T02:13:56.150Z,0
2018-05-06T02:14:57.509Z,0
2018-05-06T02:15:58.869Z,0
2018-05-06T02:17:00.231Z,0
2018-05-06T02:18:01.583Z,0
2018-05-06T02:19:02.943Z,0
2018-05-06T02:20:04.298Z,0
2018-05-06T02:21:05.656Z,0
2018-05-06T02:22:07.071Z,0
2018-05-06T02:23:08.437Z,0
2018-05-06T02:24:09.789Z,0
2018-05-06T02:25:11.159Z,0
2018-05-06T02:26:12.508Z,0
2018-05-06T02:27:13.870Z,0
2018-05-06T02:28:15.222Z,0
2018-05-06T02:29:16.575Z,0
2018-05-06T02:30:17.938Z,0
2018-05-06T02:31:19.288Z,0
2018-05-06T02:32:20.641Z,0
2018-05-06T02:33:22.004Z,0
2018-05-06T02:34:23.359Z,0
2018-05-06T02:35:24.714Z,0
2018-05-06T02:36:26.064Z,0
2018-05-06T02:37:27.433Z,0
2018-05-06T02:38:28.783Z,0
2018-05-06T02:39:30.135Z,0
2018-05-06T02:40:31.507Z,0
2018-05-06T02:41:32.854Z,0
2018-05-06T02:42:34.213Z,0
2018-05-06T02:43:36.504Z,0
2018-05-06T02:44:37.909Z,0
2018-05-06T02:45:39.268Z,0
2018-05-06T02:46:40.634Z,0
2018-05-06T02:47:41.990Z,0
2018-05-06T02:48:43.344Z,0
2018-05-06T02:49:44.715Z,0
2018-05-06T02:50:46.077Z,0
2018-05-06T02:51:47.425Z,0
2018-05-06T02:52:48.783Z,0
2018-05-06T02:53:50.143Z,0
2018-05-06T02:54:51.500Z,0
2018-05-06T02:55:52.858Z,0
2018-05-06T02:56:54.216Z,0
2018-05-06T02:57:55.576Z,0
2018-05-06T02:58:56.936Z,0
2018-05-06T02:59:58.283Z,0
2018-05-06T03:00:59.637Z,0
2018-05-06T03:02:01.000Z,0
2018-05-06T03:03:02.349Z,0
2018-05-06T03:04:03.712Z,0
2018-05-06T03:05:05.064Z,0
2018-05-06T03:06:06.427Z,0
2018-05-06T03:07:07.795Z,0
2018-05-06T03:08:09.150Z,0
2018-05-06T03:09:10.502Z,0
2018-05-06T03:10:11.860Z,0
2018-05-06T03:11:13.221Z,0
2018-05-06T03:12:14.578Z,0
2018-05-06T03:13:15.934Z,0
2018-05-06T03:14:17.294Z,0
2018-05-06T03:15:18.649Z,0
2018-05-06T03:16:19.999Z,0
2018-05-06T03:17:21.432Z,4
2018-05-06T03:18:22.719Z,4
2018-05-06T03:19:24.073Z,0
2018-05-06T03:20:25.439Z,4
2018-05-06T03:21:26.794Z,4
2018-05-06T03:22:28.153Z,4
2018-05-06T03:23:29.523Z,4
2018-05-06T03:24:30.871Z,4
2018-05-06T03:25:32.230Z,8
2018-05-06T03:26:33.592Z,8
2018-05-06T03:27:34.940Z,12
2018-05-06T03:28:36.303Z,16
2018-05-06T03:29:37.669Z,16
2018-05-06T03:30:39.030Z,16
2018-05-06T03:31:40.401Z,20
2018-05-06T03:32:41.774Z,24
2018-05-06T03:33:43.133Z,32
2018-05-06T03:34:44.498Z,32
2018-05-06T03:35:45.846Z,40
2018-05-06T03:36:47.207Z,48
2018-05-06T03:37:48.570Z,56
2018-05-06T03:38:49.926Z,64
2018-05-06T03:39:51.278Z,76
2018-05-06T03:40:52.636Z,84
2018-05-06T03:41:53.995Z,100
2018-05-06T03:42:55.357Z,116
2018-05-06T03:43:56.718Z,132
2018-05-06T03:44:58.084Z,148
2018-05-06T03:45:59.433Z,172
2018-05-06T03:47:00.800Z,192
2018-05-06T03:48:02.155Z,220
2018-05-06T03:49:03.514Z,244
2018-05-06T03:50:04.871Z,272
2018-05-06T03:51:06.231Z,304
2018-05-06T03:52:07.596Z,340
2018-05-06T03:53:08.959Z,376
2018-05-06T03:54:10.336Z,412
2018-05-06T03:55:11.715Z,452
2018-05-06T03:56:13.077Z,492
2018-05-06T03:57:14.430Z,536
2018-05-06T03:58:15.788Z,584
2018-05-06T03:59:17.152Z,632
2018-05-06T04:00:18.519Z,684
2018-05-06T04:01:19.872Z,740
2018-05-06T04:02:21.227Z,796
2018-05-06T04:03:22.586Z,852
2018-05-06T04:04:23.945Z,912
2018-05-06T04:05:25.303Z,976
2018-05-06T04:06:26.662Z,1036
2018-05-06T04:07:28.023Z,1100
2018-05-06T04:08:29.390Z,1168
2018-05-06T04:09:30.741Z,1232
2018-05-06T04:10:32.100Z,1304
2018-05-06T04:11:33.457Z,1372
2018-05-06T04:12:34.822Z,1444
2018-05-06T04:13:36.179Z,1516
2018-05-06T04:14:37.542Z,1584
2018-05-06T04:15:38.904Z,1660
2018-05-06T04:16:40.268Z,1736
2018-05-06T04:17:41.631Z,1812
2018-05-06T04:18:42.992Z,1888
2018-05-06T04:19:44.355Z,1960
2018-05-06T04:20:45.711Z,2032
2018-05-06T04:21:47.075Z,2112
2018-05-06T04:22:48.431Z,2188
2018-05-06T04:23:49.791Z,2260
2018-05-06T04:24:51.157Z,2332
2018-05-06T04:25:52.509Z,2408
2018-05-06T04:26:53.884Z,2488
2018-05-06T04:27:55.237Z,2556
2018-05-06T04:28:56.596Z,2628
2018-05-06T04:29:57.964Z,2704
2018-05-06T04:30:59.320Z,2772
2018-05-06T04:32:00.684Z,2844
2018-05-06T04:33:02.042Z,2916
2018-05-06T04:34:03.403Z,2988
2018-05-06T04:35:04.767Z,3056
2018-05-06T04:36:06.127Z,3124
2018-05-06T04:37:07.499Z,3196
2018-05-06T04:38:08.862Z,3264
2018-05-06T04:39:10.227Z,3332
2018-05-06T04:40:11.583Z,3400
2018-05-06T04:41:12.945Z,3468
2018-05-06T04:42:14.314Z,3528
2018-05-06T04:43:15.667Z,3592
2018-05-06T04:44:17.056Z,3656
2018-05-06T04:45:18.396Z,3720
2018-05-06T04:46:19.757Z,3780
2018-05-06T04:47:21.122Z,3840
2018-05-06T04:48:22.481Z,3900
2018-05-06T04:49:23.856Z,3956
2018-05-06T04:50:25.213Z,4016
2018-05-06T04:51:26.581Z,4076
2018-05-06T04:52:27.941Z,4132
2018-05-06T04:53:29.308Z,4188
2018-05-06T04:54:30.665Z,4248
2018-05-06T04:55:32.036Z,4296
2018-05-06T04:56:33.390Z,4356
2018-05-06T04:57:34.758Z,4404
2018-05-06T04:58:36.123Z,4464
2018-05-06T04:59:37.476Z,4512
2018-05-06T05:00:38.842Z,4564
2018-05-06T05:01:40.201Z,4612
2018-05-06T05:02:41.565Z,4668
2018-05-06T05:03:42.936Z,4724
2018-05-06T05:04:44.289Z,4768
2018-05-06T05:05:45.646Z,4812
2018-05-06T05:06:47.009Z,4864
2018-05-06T05:07:48.372Z,4912
2018-05-06T05:08:49.739Z,4964
2018-05-06T05:09:51.094Z,5020
2018-05-06T05:10:52.454Z,5072
2018-05-06T05:11:53.821Z,5120
2018-05-06T05:12:55.182Z,5172
2018-05-06T05:13:56.588Z,5224
2018-05-06T05:14:57.908Z,5272
2018-05-06T05:15:59.267Z,5316
2018-05-06T05:17:00.635Z,5360
2018-05-06T05:18:01.999Z,5400
2018-05-06T05:19:03.367Z,5444
2018-05-06T05:20:04.727Z,5484
2018-05-06T05:21:06.085Z,5528
2018-05-06T05:22:07.447Z,5572
2018-05-06T05:23:08.814Z,5608
2018-05-06T05:24:10.177Z,5652
2018-05-06T05:25:11.540Z,5684
2018-05-06T05:26:12.905Z,5724
2018-05-06T05:27:14.268Z,5756
2018-05-06T05:28:15.631Z,5792
2018-05-06T05:29:16.949Z,5832
2018-05-06T05:30:18.317Z,5876
2018-05-06T05:31:19.680Z,5920
2018-05-06T05:32:21.041Z,5960
2018-05-06T05:33:22.404Z,5996
2018-05-06T05:34:23.812Z,6028
2018-05-06T05:35:25.134Z,6064
2018-05-06T05:36:26.494Z,6104
2018-05-06T05:37:27.855Z,6144
2018-05-06T05:38:29.208Z,6180
2018-05-06T05:39:30.584Z,6212
2018-05-06T05:40:31.950Z,6244
2018-05-06T05:41:33.307Z,6284
2018-05-06T05:42:34.669Z,6316
2018-05-06T05:43:36.032Z,6348
2018-05-06T05:44:37.391Z,6380
2018-05-06T05:45:38.763Z,6408
2018-05-06T05:46:40.126Z,6432
2018-05-06T05:47:41.548Z,6460
2018-05-06T05:48:42.844Z,6492
2018-05-06T05:49:44.212Z,6512
2018-05-06T05:50:45.570Z,6540
2018-05-06T05:51:46.930Z,6572
2018-05-06T05:52:48.298Z,6604
2018-05-06T05:53:49.657Z,6632
2018-05-06T05:54:51.016Z,6656
2018-05-06T05:55:52.380Z,6684
2018-05-06T05:56:53.752Z,6732
2018-05-06T05:57:55.122Z,6940
2018-05-06T05:58:56.475Z,8016
2018-05-06T05:59:57.836Z,9384
2018-05-06T06:00:59.196Z,10404
2018-05-06T06:02:00.557Z,10780
2018-05-06T06:03:01.922Z,10836
2018-05-06T06:04:03.278Z,10928
2018-05-06T06:05:04.634Z,11020
2018-05-06T06:06:06.005Z,11116
2018-05-06T06:07:07.369Z,11216
2018-05-06T06:08:08.743Z,11304
2018-05-06T06:09:10.108Z,11388
2018-05-06T06:10:11.471Z,11464
2018-05-06T06:11:12.844Z,11568
2018-05-06T06:12:14.209Z,11700
2018-05-06T06:13:15.575Z,11856
2018-05-06T06:14:16.951Z,12016
2018-05-06T06:15:18.322Z,12220
2018-05-06T06:16:19.693Z,12424
2018-05-06T06:17:21.059Z,12692
2018-05-06T06:18:22.419Z,13048
2018-05-06T06:19:23.790Z,13648
2018-05-06T06:20:25.154Z,14268
2018-05-06T06:21:26.524Z,14728
2018-05-06T06:22:27.894Z,15248
2018-05-06T06:23:29.270Z,16188
2018-05-06T06:24:30.698Z,17736
2018-05-06T06:25:32.008Z,19488
2018-05-06T06:26:33.379Z,23264
2018-05-06T06:27:34.754Z,30720
2018-05-06T06:28:36.131Z,38496
2018-05-06T06:29:37.508Z,43072
2018-05-06T06:30:38.883Z,41184
2018-05-06T06:31:40.252Z,37568
2018-05-06T06:32:41.625Z,36320
2018-05-06T06:33:42.992Z,36640
2018-05-06T06:34:44.357Z,37600
2018-05-06T06:35:45.736Z,40000
2018-05-06T06:36:47.105Z,43136
2018-05-06T06:37:48.481Z,44992
2018-05-06T06:38:49.853Z,51392
2018-05-06T06:39:51.218Z,57920
2018-05-06T06:40:52.593Z,60608
2018-05-06T06:41:53.957Z,61664
2018-05-06T06:42:55.336Z,65152
2018-05-06T06:43:56.707Z,76032
2018-05-06T06:44:58.086Z,79616
2018-05-06T06:45:59.474Z,80320
2018-05-06T06:47:00.846Z,79136
2018-05-06T06:48:02.228Z,73408
2018-05-06T06:49:03.593Z,75680
2018-05-06T06:50:04.970Z,73248
2018-05-06T06:51:06.349Z,67424
2018-05-06T06:52:07.735Z,64896
2018-05-06T06:53:09.100Z,64512
2018-05-06T06:54:10.473Z,62944
2018-05-06T06:55:11.862Z,59008
2018-05-06T06:56:13.243Z,51520
2018-05-06T06:57:14.609Z,46432
2018-05-06T06:58:15.988Z,51424
2018-05-06T06:59:17.367Z,54080
2018-05-06T07:00:18.741Z,48160
2018-05-06T07:01:20.117Z,50432
2018-05-06T07:02:21.491Z,53184
2018-05-06T07:03:22.863Z,49056
2018-05-06T07:04:24.237Z,45376
2018-05-06T07:05:25.615Z,43904
2018-05-06T07:06:26.984Z,42560
2018-05-06T07:07:28.368Z,43072
2018-05-06T07:08:29.737Z,43072
2018-05-06T07:09:31.121Z,40320
2018-05-06T07:10:32.494Z,41120
2018-05-06T07:11:33.858Z,42560
2018-05-06T07:12:35.753Z,41888
2018-05-06T07:13:37.133Z,41536
2018-05-06T07:14:38.523Z,42656
2018-05-06T07:15:39.894Z,42048
2018-05-06T07:16:41.275Z,41056
2018-05-06T07:17:42.645Z,40448
2018-05-06T07:18:44.015Z,40416
2018-05-06T07:19:45.392Z,40000
2018-05-06T07:20:46.793Z,41216
2018-05-06T07:21:48.188Z,42816
2018-05-06T07:22:49.535Z,43616
2018-05-06T07:23:50.909Z,44704
2018-05-06T07:24:52.287Z,47360
2018-05-06T07:25:53.661Z,50336
2018-05-06T07:26:55.047Z,54464
2018-05-06T07:27:56.426Z,53280
2018-05-06T07:28:57.818Z,50144
2018-05-06T07:29:59.219Z,55296
2018-05-06T07:31:00.545Z,60384
2018-05-06T07:32:01.964Z,56928
2018-05-06T07:33:03.360Z,53440
2018-05-06T07:34:04.779Z,54048
2018-05-06T07:35:06.171Z,55072
2018-05-06T07:36:07.553Z,56640
2018-05-06T07:37:08.960Z,63296
2018-05-06T07:38:10.342Z,68992
2018-05-06T07:39:11.719Z,68704
2018-05-06T07:40:14.377Z,60416
2018-05-06T07:41:15.766Z,53408
2018-05-06T07:42:17.143Z,46880
2018-05-06T07:43:18.803Z,40512
2018-05-06T07:44:20.202Z,39200
2018-05-06T07:45:21.581Z,37184
2018-05-06T07:46:22.954Z,34656
2018-05-06T07:47:24.345Z,33440
2018-05-06T07:48:25.718Z,32640
2018-05-06T07:49:27.096Z,32608
2018-05-06T07:50:28.474Z,32544
2018-05-06T07:51:29.853Z,32512
2018-05-06T07:52:31.231Z,32512
2018-05-06T07:53:32.615Z,32640
2018-05-06T07:54:33.994Z,32800
2018-05-06T07:55:35.433Z,32896
2018-05-06T07:56:36.820Z,33248
2018-05-06T07:57:38.205Z,33184
2018-05-06T07:58:39.587Z,33216
2018-05-06T07:59:40.976Z,33312
2018-05-06T08:00:42.361Z,33312
2018-05-06T08:01:43.749Z,33568
2018-05-06T08:02:45.138Z,33696
2018-05-06T08:03:47.084Z,33824
2018-05-06T08:04:48.466Z,33856
2018-05-06T08:05:49.850Z,33984
2018-05-06T08:06:51.225Z,33984
2018-05-06T08:07:52.648Z,34080
2018-05-06T08:08:54.041Z,34208
2018-05-06T08:09:55.431Z,34496
2018-05-06T08:10:56.896Z,34400
2018-05-06T08:11:58.201Z,34176
2018-05-06T08:12:59.581Z,34304
2018-05-06T08:14:00.962Z,34208
2018-05-06T08:15:02.346Z,34176
2018-05-06T08:16:03.736Z,34016
2018-05-06T08:17:05.112Z,33984
2018-05-06T08:18:06.573Z,34048
2018-05-06T08:19:07.962Z,33856
2018-05-06T08:20:09.349Z,33888
2018-05-06T08:21:10.728Z,33952
2018-05-06T08:22:12.117Z,34048
2018-05-06T08:23:13.496Z,34176
2018-05-06T08:24:14.889Z,34720
2018-05-06T08:25:16.274Z,35840
2018-05-06T08:26:17.661Z,46144
2018-05-06T08:27:19.031Z,71552
2018-05-06T08:28:20.418Z,98528
2018-05-06T08:29:21.905Z,106368
2018-05-06T08:30:23.293Z,96640
2018-05-06T08:31:24.686Z,92736
2018-05-06T08:32:26.073Z,99424
2018-05-06T08:33:27.458Z,104256
2018-05-06T08:34:28.839Z,104064
2018-05-06T08:35:30.229Z,97632
2018-05-06T08:36:31.608Z,94016
2018-05-06T08:37:33.001Z,96384
2018-05-06T08:38:34.382Z,97120
2018-05-06T08:39:35.795Z,97920
2018-05-06T08:40:37.195Z,99584
2018-05-06T08:41:38.581Z,102304
2018-05-06T08:42:39.957Z,99072
2018-05-06T08:43:41.343Z,94944
2018-05-06T08:44:42.729Z,96928
2018-05-06T08:45:44.176Z,99840
2018-05-06T08:46:45.496Z,98432
2018-05-06T08:47:46.882Z,99840
2018-05-06T08:48:48.267Z,103264
2018-05-06T08:49:49.645Z,105472
2018-05-06T08:50:51.050Z,106048
2018-05-06T08:51:52.431Z,107680
2018-05-06T08:52:53.815Z,106400
2018-05-06T08:53:55.197Z,102528
2018-05-06T08:54:56.597Z,99008
2018-05-06T08:55:57.969Z,99840
2018-05-06T08:56:59.355Z,106176
2018-05-06T08:58:00.738Z,111200
2018-05-06T08:59:02.130Z,111808
2018-05-06T09:00:03.515Z,105920
2018-05-06T09:01:04.907Z,100384
2018-05-06T09:02:06.316Z,100576
2018-05-06T09:03:07.713Z,107744
2018-05-06T09:04:09.107Z,109248
2018-05-06T09:05:10.487Z,105856
2018-05-06T09:06:11.867Z,99200
2018-05-06T09:07:13.254Z,94688
2018-05-06T09:08:14.643Z,99520
2018-05-06T09:09:16.038Z,101792
2018-05-06T09:10:17.428Z,101696
2018-05-06T09:11:18.810Z,95360
2018-05-06T09:12:20.193Z,93120
2018-05-06T09:13:21.577Z,99296
2018-05-06T09:14:22.970Z,105760
2018-05-06T09:15:24.380Z,105824
2018-05-06T09:16:25.784Z,103136
2018-05-06T09:17:27.170Z,97856
2018-05-06T09:18:28.582Z,93920
2018-05-06T09:19:29.949Z,97184
2018-05-06T09:20:31.332Z,101312
2018-05-06T09:21:32.721Z,101824
2018-05-06T09:22:34.094Z,100896
2018-05-06T09:23:35.490Z,103200
2018-05-06T09:24:36.875Z,102624
2018-05-06T09:25:38.358Z,101856
2018-05-06T09:26:39.733Z,101504
2018-05-06T09:27:41.123Z,101664
2018-05-06T09:28:42.503Z,102432
2018-05-06T09:29:43.894Z,100032
2018-05-06T09:30:45.273Z,97664
2018-05-06T09:31:46.652Z,97856
2018-05-06T09:32:48.037Z,100928
2018-05-06T09:33:49.447Z,101408
2018-05-06T09:34:50.848Z,100992
2018-05-06T09:35:52.237Z,98112
2018-05-06T09:36:53.658Z,97056
2018-05-06T09:37:55.058Z,97536
2018-05-06T09:38:56.441Z,98432
2018-05-06T09:39:57.831Z,96736
2018-05-06T09:40:59.220Z,95424
2018-05-06T09:42:00.615Z,96352
2018-05-06T09:43:02.018Z,95936
2018-05-06T09:44:03.427Z,93568
2018-05-06T09:45:04.809Z,95072
2018-05-06T09:46:06.187Z,99552
2018-05-06T09:47:07.575Z,104672
2018-05-06T09:48:08.967Z,100768
2018-05-06T09:49:10.360Z,96832
2018-05-06T09:50:11.745Z,94272
2018-05-06T09:51:13.131Z,93856
2018-05-06T09:52:14.515Z,94592
2018-05-06T09:53:15.916Z,98912
2018-05-06T09:54:17.316Z,99328
2018-05-06T09:55:18.725Z,104000
2018-05-06T09:56:20.145Z,101728
2018-05-06T09:57:22.168Z,97504
2018-05-06T09:58:23.600Z,96896
2018-05-06T09:59:24.992Z,99776
2018-05-06T10:00:26.382Z,100736
2018-05-06T10:01:27.768Z,96192
2018-05-06T10:02:29.164Z,93280
2018-05-06T10:03:30.550Z,97632
2018-05-06T10:04:32.000Z,105952
2018-05-06T10:05:33.368Z,108448
2018-05-06T10:06:34.759Z,106400
2018-05-06T10:07:36.156Z,104384
2018-05-06T10:08:37.716Z,103648
2018-05-06T10:09:39.200Z,105664
2018-05-06T10:10:40.605Z,108672
2018-05-06T10:11:42.015Z,109344
2018-05-06T10:12:43.410Z,109664
2018-05-06T10:13:44.893Z,109216
2018-05-06T10:14:47.058Z,109792
2018-05-06T10:15:48.550Z,109920
2018-05-06T10:16:50.011Z,110304
2018-05-06T10:17:51.476Z,112256
2018-05-06T10:18:52.879Z,112544
2018-05-06T10:19:54.354Z,112160
2018-05-06T10:20:56.504Z,111648
2018-05-06T10:21:57.880Z,114016
2018-05-06T10:22:59.269Z,114848
2018-05-06T10:24:00.745Z,116672
2018-05-06T10:25:02.244Z,117792
2018-05-06T10:26:03.897Z,118816
2018-05-06T10:27:05.344Z,116320
2018-05-06T10:28:06.729Z,115232
2018-05-06T10:29:08.113Z,113024
2018-05-06T10:30:09.568Z,112320
2018-05-06T10:31:10.992Z,113568
2018-05-06T10:32:12.418Z,114688
2018-05-06T10:33:13.871Z,115360
2018-05-06T10:34:15.253Z,117920
2018-05-06T10:35:16.642Z,118912
2018-05-06T10:36:18.147Z,118496
2018-05-06T10:37:19.803Z,113664
2018-05-06T10:38:21.309Z,107744
2018-05-06T10:39:22.811Z,96864
2018-05-06T10:40:24.354Z,96096
2018-05-06T10:41:25.867Z,101408
2018-05-06T10:42:27.286Z,112320
2018-05-06T10:43:28.751Z,121440
2018-05-06T10:44:30.195Z,123584
2018-05-06T10:45:31.535Z,126208
2018-05-06T10:46:33.032Z,127520
2018-05-06T10:47:34.554Z,126624
2018-05-06T10:48:35.953Z,119104
2018-05-06T10:49:37.396Z,111872
2018-05-06T10:50:38.801Z,108768
2018-05-06T10:51:40.199Z,115456
2018-05-06T10:52:41.590Z,123872
2018-05-06T10:53:42.987Z,126112
2018-05-06T10:54:44.392Z,125056
2018-05-06T10:55:45.790Z,125824
2018-05-06T10:56:47.179Z,126048
2018-05-06T10:57:48.586Z,126656
2018-05-06T10:58:49.978Z,127008
2018-05-06T10:59:51.362Z,126720
2018-05-06T11:00:52.753Z,123808
2018-05-06T11:01:54.146Z,119040
2018-05-06T11:02:55.538Z,117376
2018-05-06T11:03:56.945Z,123264
2018-05-06T11:04:58.297Z,127776
2018-05-06T11:05:59.691Z,127232
2018-05-06T11:07:01.105Z,126912
2018-05-06T11:08:02.494Z,128032
2018-05-06T11:09:03.896Z,132960
2018-05-06T11:10:05.304Z,135072
2018-05-06T11:11:06.744Z,131648
2018-05-06T11:12:08.140Z,129536
2018-05-06T11:13:09.525Z,126560
2018-05-06T11:14:10.923Z,124384
2018-05-06T11:15:12.315Z,124000
2018-05-06T11:16:13.698Z,126112
2018-05-06T11:17:15.087Z,126752
2018-05-06T11:18:16.479Z,125888
2018-05-06T11:19:17.864Z,126368
2018-05-06T11:20:19.260Z,122432
2018-05-06T11:21:20.647Z,119200
2018-05-06T11:22:22.043Z,116608
2018-05-06T11:23:23.443Z,114080
2018-05-06T11:24:24.843Z,115840
2018-05-06T11:25:26.216Z,117024
2018-05-06T11:26:27.614Z,119072
2018-05-06T11:27:29.008Z,120992
2018-05-06T11:28:30.398Z,119456
2018-05-06T11:29:31.748Z,120192
2018-05-06T11:30:33.131Z,118848
2018-05-06T11:31:34.522Z,118560
2018-05-06T11:32:35.904Z,117984
2018-05-06T11:33:37.402Z,117856
2018-05-06T11:34:38.723Z,117792
2018-05-06T11:35:40.097Z,119616
2018-05-06T11:36:41.489Z,116832
2018-05-06T11:37:42.875Z,114880
2018-05-06T11:38:44.258Z,111616
2018-05-06T11:39:45.652Z,110464
2018-05-06T11:40:47.042Z,110592
2018-05-06T11:41:48.438Z,111296
2018-05-06T11:42:49.828Z,111712
2018-05-06T11:43:51.226Z,111776
2018-05-06T11:44:52.611Z,113568
2018-05-06T11:45:54.003Z,110304
2018-05-06T11:46:55.388Z,108416
2018-05-06T11:47:56.769Z,109952
2018-05-06T11:48:58.152Z,111680
2018-05-06T11:49:59.529Z,110848
2018-05-06T11:51:00.914Z,111840
2018-05-06T11:52:02.886Z,110752
2018-05-06T11:53:04.262Z,108416
2018-05-06T11:54:05.668Z,102592
2018-05-06T11:55:07.085Z,102528
2018-05-06T11:56:08.557Z,104288
2018-05-06T11:57:09.943Z,108736
2018-05-06T11:58:11.341Z,109344
2018-05-06T11:59:12.724Z,106304
2018-05-06T12:00:14.124Z,105824
2018-05-06T12:01:15.540Z,106560
2018-05-06T12:02:17.030Z,107040
2018-05-06T12:03:18.316Z,109408
2018-05-06T12:04:19.701Z,107840
2018-05-06T12:05:21.105Z,105536
2018-05-06T12:06:22.489Z,105280
2018-05-06T12:07:23.849Z,107232
2018-05-06T12:08:25.241Z,109760
2018-05-06T12:09:26.629Z,109664
2018-05-06T12:10:28.061Z,106016
2018-05-06T12:11:29.453Z,102752
2018-05-06T12:12:31.653Z,99424
2018-05-06T12:13:33.031Z,102976
2018-05-06T12:14:35.411Z,104832
2018-05-06T12:15:36.819Z,103584
2018-05-06T12:16:38.967Z,100736
2018-05-06T12:17:40.348Z,97568
2018-05-06T12:18:42.414Z,100192
2018-05-06T12:19:43.815Z,102976
2018-05-06T12:20:46.196Z,107488
2018-05-06T12:21:47.587Z,107456
2018-05-06T12:22:48.978Z,108640
2018-05-06T12:23:50.361Z,110272
2018-05-06T12:24:51.748Z,111872
2018-05-06T12:25:53.137Z,112128
2018-05-06T12:26:54.526Z,109696
2018-05-06T12:27:55.921Z,109280
2018-05-06T12:28:57.305Z,109184
2018-05-06T12:29:58.701Z,110208
2018-05-06T12:31:00.078Z,108192
2018-05-06T12:32:01.468Z,106688
2018-05-06T12:33:02.854Z,107328
2018-05-06T12:34:04.248Z,107584
2018-05-06T12:35:05.639Z,106816
2018-05-06T12:36:07.071Z,103424
2018-05-06T12:37:08.464Z,99968
2018-05-06T12:38:09.871Z,98368
2018-05-06T12:39:11.256Z,98400
2018-05-06T12:40:12.639Z,98816
2018-05-06T12:41:14.025Z,98656
2018-05-06T12:42:15.419Z,101280
2018-05-06T12:43:16.969Z,100448
2018-05-06T12:44:18.221Z,100640
2018-05-06T12:45:19.618Z,100512
2018-05-06T12:46:21.002Z,101152
2018-05-06T12:47:22.413Z,104192
2018-05-06T12:48:23.808Z,103936
2018-05-06T12:49:25.267Z,103040
2018-05-06T12:50:26.603Z,101600
2018-05-06T12:51:27.991Z,102016
2018-05-06T12:52:29.385Z,101280
2018-05-06T12:53:30.774Z,101056
2018-05-06T12:54:32.161Z,84576
2018-05-06T12:55:33.553Z,96064
2018-05-06T12:56:34.948Z,89248
2018-05-06T12:57:36.403Z,88384
2018-05-06T12:58:37.809Z,91296
2018-05-06T12:59:39.193Z,99072
2018-05-06T13:00:40.590Z,103040
2018-05-06T13:01:41.989Z,103680
2018-05-06T13:02:43.392Z,103776
2018-05-06T13:03:44.779Z,103808
2018-05-06T13:04:46.167Z,104416
2018-05-06T13:05:47.556Z,103712
2018-05-06T13:06:48.969Z,103424
2018-05-06T13:07:50.354Z,103840
2018-05-06T13:08:51.743Z,104032
2018-05-06T13:09:53.139Z,103168
2018-05-06T13:10:54.522Z,101664
2018-05-06T13:11:55.915Z,98848
2018-05-06T13:12:57.297Z,97088
2018-05-06T13:13:58.681Z,96576
2018-05-06T13:15:00.073Z,95680
2018-05-06T13:16:01.476Z,94432
2018-05-06T13:17:02.864Z,94912
2018-05-06T13:18:04.256Z,96064
2018-05-06T13:19:05.632Z,96736
2018-05-06T13:20:07.174Z,97696
2018-05-06T13:21:08.553Z,99136
2018-05-06T13:22:09.950Z,98368
2018-05-06T13:23:11.346Z,93184
2018-05-06T13:24:12.804Z,88576
2018-05-06T13:25:14.116Z,86560
2018-05-06T13:26:15.505Z,87168
2018-05-06T13:27:16.888Z,89504
2018-05-06T13:28:18.276Z,91904
2018-05-06T13:29:19.666Z,90688
2018-05-06T13:30:21.061Z,91488
2018-05-06T13:31:22.445Z,90208
2018-05-06T13:32:23.833Z,90208
2018-05-06T13:33:25.227Z,91264
2018-05-06T13:34:26.634Z,88960
2018-05-06T13:35:28.017Z,84768
2018-05-06T13:36:29.412Z,80992
2018-05-06T13:37:30.782Z,77600